sensor_id;sensor_type;location;lat;lon;timestamp;P1;durP1;ratioP1;P2;durP2;ratioP2
18893;SDS011;9579;49.488;8.226;2022-08-19T05:00:56;14.80;;;13.60;;
18893;SDS011;9579;49.488;8.226;2022-08-19T05:03:45;13.55;;;12.55;;
18893;SDS011;9579;49.488;8.226;2022-08-19T05:06:32;15.18;;;14.02;;
18893;SDS011;9579;49.488;8.226;2022-08-19T05:09:20;15.30;;;14.23;;
18893;SDS011;9579;49.488;8.226;2022-08-19T05:12:07;13.57;;;12.50;;
18893;SDS011;9579;49.488;8.226;2022-08-19T05:14:54;14.95;;;13.88;;
18893;SDS011;9579;49.488;8.226;2022-08-19T05:17:43;14.90;;;13.75;;
18893;SDS011;9579;49.488;8.226;2022-08-19T05:20:50;12.23;;;11.32;;
18893;SDS011;9579;49.488;8.226;2022-08-19T05:23:54;12.68;;;11.77;;
18893;SDS011;9579;49.488;8.226;2022-08-19T05:26:43;13.75;;;12.77;;
18893;SDS011;9579;49.488;8.226;2022-08-19T05:29:33;13.30;;;12.20;;
18893;SDS011;9579;49.488;8.226;2022-08-19T05:32:20;13.52;;;12.48;;
18893;SDS011;9579;49.488;8.226;2022-08-19T05:35:10;14.00;;;13.00;;
18893;SDS011;9579;49.488;8.226;2022-08-19T05:37:57;12.70;;;11.75;;
18893;SDS011;9579;49.488;8.226;2022-08-19T05:40:44;11.85;;;10.95;;
18893;SDS011;9579;49.488;8.226;2022-08-19T05:43:32;13.13;;;12.13;;
18893;SDS011;9579;49.488;8.226;2022-08-19T05:46:19;12.65;;;11.65;;
18893;SDS011;9579;49.488;8.226;2022-08-19T05:49:07;12.63;;;11.63;;
18893;SDS011;9579;49.488;8.226;2022-08-19T05:51:56;12.65;;;11.65;;
18893;SDS011;9579;49.488;8.226;2022-08-19T05:54:43;13.30;;;12.30;;
18893;SDS011;9579;49.488;8.226;2022-08-19T05:57:32;12.68;;;11.77;;
18893;SDS011;9579;49.488;8.226;2022-08-19T06:00:20;12.13;;;11.10;;
18893;SDS011;9579;49.488;8.226;2022-08-19T06:03:07;11.20;;;10.30;;
18893;SDS011;9579;49.488;8.226;2022-08-19T06:05:54;12.15;;;11.25;;
18893;SDS011;9579;49.488;8.226;2022-08-19T06:08:42;10.85;;;9.95;;
18893;SDS011;9579;49.488;8.226;2022-08-19T06:11:35;12.75;;;11.85;;
18893;SDS011;9579;49.488;8.226;2022-08-19T06:14:25;12.82;;;11.93;;
18893;SDS011;9579;49.488;8.226;2022-08-19T06:17:15;11.88;;;10.98;;
18893;SDS011;9579;49.488;8.226;2022-08-19T06:20:03;11.25;;;10.45;;
18893;SDS011;9579;49.488;8.226;2022-08-19T06:22:50;13.35;;;12.25;;
18893;SDS011;9579;49.488;8.226;2022-08-19T06:25:39;10.27;;;9.30;;
18893;SDS011;9579;49.488;8.226;2022-08-19T06:28:26;12.50;;;11.50;;
18893;SDS011;9579;49.488;8.226;2022-08-19T06:31:13;11.00;;;10.10;;
18893;SDS011;9579;49.488;8.226;2022-08-19T06:34:02;10.88;;;10.02;;
18893;SDS011;9579;49.488;8.226;2022-08-19T06:36:50;11.25;;;10.45;;
18893;SDS011;9579;49.488;8.226;2022-08-19T06:39:38;10.10;;;9.30;;
18893;SDS011;9579;49.488;8.226;2022-08-19T06:42:28;10.82;;;9.95;;
18893;SDS011;9579;49.488;8.226;2022-08-19T06:45:16;10.18;;;9.30;;
18893;SDS011;9579;49.488;8.226;2022-08-19T06:48:03;10.10;;;9.30;;
18893;SDS011;9579;49.488;8.226;2022-08-19T06:50:50;9.32;;;8.63;;
18893;SDS011;9579;49.488;8.226;2022-08-19T06:53:37;10.70;;;9.80;;
18893;SDS011;9579;49.488;8.226;2022-08-19T06:56:26;10.07;;;9.27;;
18893;SDS011;9579;49.488;8.226;2022-08-19T06:59:18;10.70;;;9.77;;
18893;SDS011;9579;49.488;8.226;2022-08-19T07:02:07;11.10;;;10.30;;
18893;SDS011;9579;49.488;8.226;2022-08-19T07:04:54;11.27;;;10.32;;
18893;SDS011;9579;49.488;8.226;2022-08-19T07:07:43;9.77;;;9.07;;
18893;SDS011;9579;49.488;8.226;2022-08-19T07:10:30;11.27;;;10.38;;
18893;SDS011;9579;49.488;8.226;2022-08-19T07:13:18;10.38;;;9.52;;
18893;SDS011;9579;49.488;8.226;2022-08-19T07:16:07;10.27;;;9.48;;
18893;SDS011;9579;49.488;8.226;2022-08-19T07:18:55;10.65;;;9.85;;
18893;SDS011;9579;49.488;8.226;2022-08-19T07:21:42;10.38;;;9.57;;
18893;SDS011;9579;49.488;8.226;2022-08-19T07:24:29;12.20;;;11.10;;
18893;SDS011;9579;49.488;8.226;2022-08-19T07:27:18;11.00;;;10.10;;
18893;SDS011;9579;49.488;8.226;2022-08-19T07:30:06;10.95;;;10.00;;
18893;SDS011;9579;49.488;8.226;2022-08-19T07:32:58;11.48;;;10.57;;
18893;SDS011;9579;49.488;8.226;2022-08-19T07:35:45;10.82;;;10.00;;
18893;SDS011;9579;49.488;8.226;2022-08-19T07:38:32;11.98;;;10.98;;
18893;SDS011;9579;49.488;8.226;2022-08-19T07:41:22;11.20;;;10.30;;
18893;SDS011;9579;49.488;8.226;2022-08-19T07:44:11;9.88;;;8.98;;
18893;SDS011;9579;49.488;8.226;2022-08-19T07:47:00;10.40;;;9.65;;
18893;SDS011;9579;49.488;8.226;2022-08-19T07:49:48;11.75;;;10.93;;
18893;SDS011;9579;49.488;8.226;2022-08-19T07:52:36;10.30;;;9.40;;
18893;SDS011;9579;49.488;8.226;2022-08-19T07:55:25;10.15;;;9.35;;
18893;SDS011;9579;49.488;8.226;2022-08-19T07:58:13;11.48;;;10.48;;
18893;SDS011;9579;49.488;8.226;2022-08-19T08:01:02;9.63;;;8.82;;
18893;SDS011;9579;49.488;8.226;2022-08-19T08:03:51;9.10;;;8.40;;
18893;SDS011;9579;49.488;8.226;2022-08-19T08:06:58;8.13;;;7.43;;
18893;SDS011;9579;49.488;8.226;2022-08-19T08:10:03;7.82;;;7.32;;
18893;SDS011;9579;49.488;8.226;2022-08-19T08:12:52;8.70;;;7.80;;
18893;SDS011;9579;49.488;8.226;2022-08-19T08:15:40;10.05;;;9.15;;
18893;SDS011;9579;49.488;8.226;2022-08-19T08:18:29;10.20;;;9.40;;
18893;SDS011;9579;49.488;8.226;2022-08-19T08:21:17;8.95;;;8.25;;
18893;SDS011;9579;49.488;8.226;2022-08-19T08:24:06;8.70;;;8.10;;
18893;SDS011;9579;49.488;8.226;2022-08-19T08:26:53;9.23;;;8.50;;
18893;SDS011;9579;49.488;8.226;2022-08-19T08:29:41;9.70;;;8.80;;
18893;SDS011;9579;49.488;8.226;2022-08-19T08:32:29;10.00;;;9.02;;
18893;SDS011;9579;49.488;8.226;2022-08-19T08:35:17;9.05;;;8.32;;
18893;SDS011;9579;49.488;8.226;2022-08-19T08:38:07;7.63;;;7.03;;
18893;SDS011;9579;49.488;8.226;2022-08-19T08:40:56;9.43;;;8.73;;
18893;SDS011;9579;49.488;8.226;2022-08-19T08:43:52;8.05;;;7.45;;
18893;SDS011;9579;49.488;8.226;2022-08-19T08:46:41;8.77;;;8.07;;
18893;SDS011;9579;49.488;8.226;2022-08-19T08:49:36;9.70;;;8.90;;
18893;SDS011;9579;49.488;8.226;2022-08-19T08:52:29;8.93;;;8.32;;
18893;SDS011;9579;49.488;8.226;2022-08-19T08:55:19;8.88;;;8.20;;
18893;SDS011;9579;49.488;8.226;2022-08-19T08:58:12;9.93;;;9.02;;
18893;SDS011;9579;49.488;8.226;2022-08-19T09:01:03;9.73;;;8.82;;
18893;SDS011;9579;49.488;8.226;2022-08-19T09:03:51;8.15;;;7.55;;
18893;SDS011;9579;49.488;8.226;2022-08-19T09:06:40;8.48;;;7.80;;
18893;SDS011;9579;49.488;8.226;2022-08-19T09:09:38;8.73;;;8.05;;
18893;SDS011;9579;49.488;8.226;2022-08-19T09:12:32;8.70;;;8.00;;
18893;SDS011;9579;49.488;8.226;2022-08-19T09:15:28;7.95;;;7.35;;
18893;SDS011;9579;49.488;8.226;2022-08-19T09:18:19;12.55;;;11.38;;
18893;SDS011;9579;49.488;8.226;2022-08-19T09:21:07;9.90;;;9.00;;
18893;SDS011;9579;49.488;8.226;2022-08-19T09:23:54;9.18;;;8.27;;
18893;SDS011;9579;49.488;8.226;2022-08-19T09:26:43;9.68;;;8.88;;
18893;SDS011;9579;49.488;8.226;2022-08-19T09:29:31;9.25;;;8.45;;
18893;SDS011;9579;49.488;8.226;2022-08-19T09:32:19;9.13;;;8.32;;
18893;SDS011;9579;49.488;8.226;2022-08-19T09:35:07;8.35;;;7.65;;
18893;SDS011;9579;49.488;8.226;2022-08-19T09:37:55;7.43;;;6.82;;
18893;SDS011;9579;49.488;8.226;2022-08-19T09:40:43;8.40;;;7.70;;
18893;SDS011;9579;49.488;8.226;2022-08-19T09:43:30;9.48;;;8.77;;
18893;SDS011;9579;49.488;8.226;2022-08-19T09:46:17;9.93;;;9.13;;
18893;SDS011;9579;49.488;8.226;2022-08-19T09:49:07;8.40;;;7.80;;
18893;SDS011;9579;49.488;8.226;2022-08-19T09:51:54;8.52;;;7.88;;
18893;SDS011;9579;49.488;8.226;2022-08-19T09:54:41;8.07;;;7.47;;
18893;SDS011;9579;49.488;8.226;2022-08-19T09:57:28;8.45;;;7.75;;
18893;SDS011;9579;49.488;8.226;2022-08-19T10:00:16;7.53;;;6.97;;
18893;SDS011;9579;49.488;8.226;2022-08-19T10:03:03;8.23;;;7.68;;
18893;SDS011;9579;49.488;8.226;2022-08-19T10:05:51;7.40;;;6.90;;
18893;SDS011;9579;49.488;8.226;2022-08-19T10:08:38;7.72;;;7.13;;
18893;SDS011;9579;49.488;8.226;2022-08-19T10:11:26;8.20;;;7.60;;
18893;SDS011;9579;49.488;8.226;2022-08-19T10:14:14;7.38;;;6.78;;
18893;SDS011;9579;49.488;8.226;2022-08-19T10:17:02;6.97;;;6.45;;
18893;SDS011;9579;49.488;8.226;2022-08-19T10:19:49;8.00;;;7.40;;
18893;SDS011;9579;49.488;8.226;2022-08-19T10:22:40;7.00;;;6.50;;
18893;SDS011;9579;49.488;8.226;2022-08-19T10:25:28;7.72;;;7.22;;
18893;SDS011;9579;49.488;8.226;2022-08-19T10:28:16;7.97;;;7.28;;
18893;SDS011;9579;49.488;8.226;2022-08-19T10:31:04;7.82;;;7.22;;
18893;SDS011;9579;49.488;8.226;2022-08-19T10:33:52;7.18;;;6.57;;
18893;SDS011;9579;49.488;8.226;2022-08-19T10:36:42;7.30;;;6.80;;
18893;SDS011;9579;49.488;8.226;2022-08-19T10:39:31;8.70;;;8.10;;
18893;SDS011;9579;49.488;8.226;2022-08-19T10:42:19;7.53;;;7.03;;
18893;SDS011;9579;49.488;8.226;2022-08-19T10:45:06;8.05;;;7.55;;
18893;SDS011;9579;49.488;8.226;2022-08-19T10:47:55;8.27;;;7.47;;
18893;SDS011;9579;49.488;8.226;2022-08-19T10:50:42;8.18;;;7.50;;
18893;SDS011;9579;49.488;8.226;2022-08-19T10:53:47;8.23;;;7.53;;
18893;SDS011;9579;49.488;8.226;2022-08-19T10:56:35;8.48;;;7.88;;
18893;SDS011;9579;49.488;8.226;2022-08-19T10:59:36;7.90;;;7.40;;
18893;SDS011;9579;49.488;8.226;2022-08-19T11:02:24;7.22;;;6.65;;
18893;SDS011;9579;49.488;8.226;2022-08-19T11:05:11;6.22;;;5.82;;
18893;SDS011;9579;49.488;8.226;2022-08-19T11:07:59;6.53;;;6.13;;
18893;SDS011;9579;49.488;8.226;2022-08-19T11:10:47;6.78;;;6.25;;
18893;SDS011;9579;49.488;8.226;2022-08-19T11:13:36;6.70;;;6.07;;
18893;SDS011;9579;49.488;8.226;2022-08-19T11:16:26;6.47;;;5.97;;
18893;SDS011;9579;49.488;8.226;2022-08-19T11:19:16;7.70;;;7.20;;
18893;SDS011;9579;49.488;8.226;2022-08-19T11:22:06;7.40;;;6.85;;
18893;SDS011;9579;49.488;8.226;2022-08-19T11:24:54;8.35;;;7.65;;
18893;SDS011;9579;49.488;8.226;2022-08-19T11:27:42;7.43;;;6.93;;
18893;SDS011;9579;49.488;8.226;2022-08-19T11:30:32;8.27;;;7.57;;
18893;SDS011;9579;49.488;8.226;2022-08-19T11:33:19;7.40;;;6.70;;
18893;SDS011;9579;49.488;8.226;2022-08-19T11:36:07;6.63;;;6.13;;
18893;SDS011;9579;49.488;8.226;2022-08-19T11:38:54;7.72;;;7.15;;
18893;SDS011;9579;49.488;8.226;2022-08-19T11:41:41;8.18;;;6.93;;
18893;SDS011;9579;49.488;8.226;2022-08-19T11:44:29;6.70;;;6.10;;
18893;SDS011;9579;49.488;8.226;2022-08-19T11:47:18;6.70;;;6.20;;
18893;SDS011;9579;49.488;8.226;2022-08-19T11:50:06;6.00;;;5.60;;
18893;SDS011;9579;49.488;8.226;2022-08-19T11:52:55;5.88;;;5.47;;
18893;SDS011;9579;49.488;8.226;2022-08-19T11:55:42;7.13;;;6.47;;
18893;SDS011;9579;49.488;8.226;2022-08-19T11:58:30;5.90;;;5.50;;
18893;SDS011;9579;49.488;8.226;2022-08-19T12:01:18;5.80;;;5.22;;
18893;SDS011;9579;49.488;8.226;2022-08-19T12:04:08;6.35;;;5.85;;
18893;SDS011;9579;49.488;8.226;2022-08-19T12:06:56;6.07;;;5.57;;
18893;SDS011;9579;49.488;8.226;2022-08-19T12:09:43;5.80;;;5.22;;
18893;SDS011;9579;49.488;8.226;2022-08-19T12:12:30;5.75;;;5.35;;
18893;SDS011;9579;49.488;8.226;2022-08-19T12:15:20;5.25;;;4.85;;
18893;SDS011;9579;49.488;8.226;2022-08-19T12:18:08;5.40;;;5.00;;
18893;SDS011;9579;49.488;8.226;2022-08-19T12:20:59;4.90;;;4.60;;
18893;SDS011;9579;49.488;8.226;2022-08-19T12:23:49;5.07;;;4.68;;
18893;SDS011;9579;49.488;8.226;2022-08-19T12:26:38;5.57;;;5.18;;
18893;SDS011;9579;49.488;8.226;2022-08-19T12:29:27;5.75;;;5.25;;
18893;SDS011;9579;49.488;8.226;2022-08-19T12:32:15;5.03;;;4.70;;
18893;SDS011;9579;49.488;8.226;2022-08-19T12:35:03;5.20;;;4.88;;
18893;SDS011;9579;49.488;8.226;2022-08-19T12:37:52;5.22;;;4.90;;
18893;SDS011;9579;49.488;8.226;2022-08-19T12:40:40;5.57;;;5.07;;
18893;SDS011;9579;49.488;8.226;2022-08-19T12:43:28;5.20;;;4.80;;
18893;SDS011;9579;49.488;8.226;2022-08-19T12:46:15;4.93;;;4.63;;
18893;SDS011;9579;49.488;8.226;2022-08-19T12:49:04;5.00;;;4.70;;
18893;SDS011;9579;49.488;8.226;2022-08-19T12:51:52;4.45;;;4.25;;
18893;SDS011;9579;49.488;8.226;2022-08-19T12:54:42;4.80;;;4.50;;
18893;SDS011;9579;49.488;8.226;2022-08-19T12:57:30;4.60;;;4.30;;
18893;SDS011;9579;49.488;8.226;2022-08-19T13:00:22;4.10;;;3.90;;
18893;SDS011;9579;49.488;8.226;2022-08-19T13:03:10;4.13;;;3.83;;
18893;SDS011;9579;49.488;8.226;2022-08-19T13:05:57;4.40;;;4.10;;
18893;SDS011;9579;49.488;8.226;2022-08-19T13:08:47;4.05;;;3.80;;
18893;SDS011;9579;49.488;8.226;2022-08-19T13:11:38;4.32;;;3.92;;
18893;SDS011;9579;49.488;8.226;2022-08-19T13:14:25;4.00;;;3.70;;
18893;SDS011;9579;49.488;8.226;2022-08-19T13:17:16;4.03;;;3.78;;
18893;SDS011;9579;49.488;8.226;2022-08-19T13:20:05;4.03;;;3.83;;
18893;SDS011;9579;49.488;8.226;2022-08-19T13:22:54;4.40;;;4.00;;
18893;SDS011;9579;49.488;8.226;2022-08-19T13:25:42;4.03;;;3.72;;
18893;SDS011;9579;49.488;8.226;2022-08-19T13:28:31;4.10;;;3.80;;
18893;SDS011;9579;49.488;8.226;2022-08-19T13:31:33;4.10;;;3.80;;
18893;SDS011;9579;49.488;8.226;2022-08-19T13:34:39;3.80;;;3.60;;
18893;SDS011;9579;49.488;8.226;2022-08-19T13:37:30;4.45;;;4.15;;
18893;SDS011;9579;49.488;8.226;2022-08-19T13:40:31;4.07;;;3.88;;
18893;SDS011;9579;49.488;8.226;2022-08-19T13:43:20;5.25;;;3.88;;
18893;SDS011;9579;49.488;8.226;2022-08-19T13:46:11;4.30;;;4.00;;
18893;SDS011;9579;49.488;8.226;2022-08-19T13:49:05;4.32;;;4.03;;
18893;SDS011;9579;49.488;8.226;2022-08-19T13:51:55;4.47;;;4.07;;
18893;SDS011;9579;49.488;8.226;2022-08-19T13:54:44;4.45;;;4.15;;
18893;SDS011;9579;49.488;8.226;2022-08-19T13:57:31;4.82;;;4.45;;
18893;SDS011;9579;49.488;8.226;2022-08-19T14:00:19;4.30;;;4.00;;
18893;SDS011;9579;49.488;8.226;2022-08-19T14:03:11;4.55;;;4.07;;
18893;SDS011;9579;49.488;8.226;2022-08-19T14:05:58;4.70;;;4.32;;
18893;SDS011;9579;49.488;8.226;2022-08-19T14:08:46;4.50;;;4.20;;
18893;SDS011;9579;49.488;8.226;2022-08-19T14:11:33;4.85;;;4.45;;
18893;SDS011;9579;49.488;8.226;2022-08-19T14:14:20;4.78;;;4.47;;
18893;SDS011;9579;49.488;8.226;2022-08-19T14:17:08;4.47;;;4.18;;
18893;SDS011;9579;49.488;8.226;2022-08-19T14:19:57;4.50;;;4.20;;
18893;SDS011;9579;49.488;8.226;2022-08-19T14:22:52;4.68;;;4.38;;
18893;SDS011;9579;49.488;8.226;2022-08-19T14:25:40;4.93;;;4.57;;
18893;SDS011;9579;49.488;8.226;2022-08-19T14:28:27;4.47;;;4.18;;
18893;SDS011;9579;49.488;8.226;2022-08-19T14:31:16;4.47;;;4.18;;
18893;SDS011;9579;49.488;8.226;2022-08-19T14:34:04;4.57;;;4.28;;
18893;SDS011;9579;49.488;8.226;2022-08-19T14:36:53;4.90;;;4.50;;
18893;SDS011;9579;49.488;8.226;2022-08-19T14:39:53;5.57;;;4.50;;
18893;SDS011;9579;49.488;8.226;2022-08-19T14:42:41;4.90;;;4.50;;
18893;SDS011;9579;49.488;8.226;2022-08-19T14:45:29;4.65;;;4.30;;
18893;SDS011;9579;49.488;8.226;2022-08-19T14:48:17;5.10;;;4.63;;
18893;SDS011;9579;49.488;8.226;2022-08-19T14:51:06;4.80;;;4.50;;
18893;SDS011;9579;49.488;8.226;2022-08-19T14:53:55;4.50;;;4.22;;
18893;SDS011;9579;49.488;8.226;2022-08-19T14:56:43;4.88;;;4.43;;
18893;SDS011;9579;49.488;8.226;2022-08-19T14:59:30;4.90;;;4.50;;
18893;SDS011;9579;49.488;8.226;2022-08-19T15:02:18;4.78;;;4.47;;
18893;SDS011;9579;49.488;8.226;2022-08-19T15:05:05;5.00;;;4.50;;
18893;SDS011;9579;49.488;8.226;2022-08-19T15:07:53;5.20;;;4.20;;
18893;SDS011;9579;49.488;8.226;2022-08-19T15:10:43;4.78;;;4.40;;
18893;SDS011;9579;49.488;8.226;2022-08-19T15:13:31;4.65;;;4.35;;
18893;SDS011;9579;49.488;8.226;2022-08-19T15:16:18;4.97;;;4.57;;
18893;SDS011;9579;49.488;8.226;2022-08-19T15:19:05;4.82;;;4.47;;
18893;SDS011;9579;49.488;8.226;2022-08-19T15:21:52;4.32;;;4.03;;
18893;SDS011;9579;49.488;8.226;2022-08-19T15:24:40;5.18;;;4.70;;
18893;SDS011;9579;49.488;8.226;2022-08-19T15:27:31;5.00;;;4.60;;
18893;SDS011;9579;49.488;8.226;2022-08-19T15:30:20;4.80;;;4.50;;
18893;SDS011;9579;49.488;8.226;2022-08-19T15:33:09;4.60;;;4.30;;
18893;SDS011;9579;49.488;8.226;2022-08-19T15:35:58;4.90;;;4.60;;
18893;SDS011;9579;49.488;8.226;2022-08-19T15:38:45;4.97;;;4.53;;
18893;SDS011;9579;49.488;8.226;2022-08-19T15:41:32;4.97;;;4.57;;
18893;SDS011;9579;49.488;8.226;2022-08-19T15:44:21;4.70;;;4.40;;
18893;SDS011;9579;49.488;8.226;2022-08-19T15:47:08;4.78;;;4.32;;
18893;SDS011;9579;49.488;8.226;2022-08-19T15:49:58;4.60;;;4.30;;
18893;SDS011;9579;49.488;8.226;2022-08-19T15:52:45;4.70;;;4.40;;
18893;SDS011;9579;49.488;8.226;2022-08-19T15:55:35;5.07;;;4.68;;
18893;SDS011;9579;49.488;8.226;2022-08-19T15:58:26;5.40;;;5.00;;
18893;SDS011;9579;49.488;8.226;2022-08-19T16:01:32;5.38;;;4.97;;
18893;SDS011;9579;49.488;8.226;2022-08-19T16:04:40;5.43;;;5.13;;
18893;SDS011;9579;49.488;8.226;2022-08-19T16:07:45;5.57;;;5.18;;
18893;SDS011;9579;49.488;8.226;2022-08-19T16:10:32;5.40;;;5.00;;
18893;SDS011;9579;49.488;8.226;2022-08-19T16:13:19;5.97;;;5.57;;
18893;SDS011;9579;49.488;8.226;2022-08-19T16:16:06;6.50;;;5.90;;
18893;SDS011;9579;49.488;8.226;2022-08-19T16:18:55;5.93;;;5.60;;
18893;SDS011;9579;49.488;8.226;2022-08-19T16:21:43;6.32;;;5.93;;
18893;SDS011;9579;49.488;8.226;2022-08-19T16:24:31;6.45;;;5.95;;
18893;SDS011;9579;49.488;8.226;2022-08-19T16:27:18;5.65;;;5.25;;
18893;SDS011;9579;49.488;8.226;2022-08-19T16:30:09;6.00;;;5.50;;
18893;SDS011;9579;49.488;8.226;2022-08-19T16:32:56;5.43;;;5.13;;
18893;SDS011;9579;49.488;8.226;2022-08-19T16:35:44;5.85;;;5.35;;
18893;SDS011;9579;49.488;8.226;2022-08-19T16:38:31;7.75;;;5.80;;
18893;SDS011;9579;49.488;8.226;2022-08-19T16:41:22;5.97;;;5.57;;
18893;SDS011;9579;49.488;8.226;2022-08-19T16:44:10;6.57;;;5.90;;
18893;SDS011;9579;49.488;8.226;2022-08-19T16:46:59;5.93;;;5.53;;
18893;SDS011;9579;49.488;8.226;2022-08-19T16:49:46;6.22;;;5.82;;
18893;SDS011;9579;49.488;8.226;2022-08-19T16:52:34;6.85;;;6.22;;
18893;SDS011;9579;49.488;8.226;2022-08-19T16:55:21;6.20;;;5.70;;
18893;SDS011;9579;49.488;8.226;2022-08-19T16:58:09;6.20;;;5.70;;
18893;SDS011;9579;49.488;8.226;2022-08-19T17:00:56;6.40;;;5.90;;
18893;SDS011;9579;49.488;8.226;2022-08-19T17:03:44;6.03;;;5.63;;
18893;SDS011;9579;49.488;8.226;2022-08-19T17:06:34;6.13;;;5.63;;
18893;SDS011;9579;49.488;8.226;2022-08-19T17:09:23;7.05;;;6.45;;
18893;SDS011;9579;49.488;8.226;2022-08-19T17:12:10;6.20;;;5.80;;
18893;SDS011;9579;49.488;8.226;2022-08-19T17:14:57;6.20;;;5.80;;
18893;SDS011;9579;49.488;8.226;2022-08-19T17:17:45;6.30;;;5.82;;
18893;SDS011;9579;49.488;8.226;2022-08-19T17:20:32;6.80;;;6.07;;
18893;SDS011;9579;49.488;8.226;2022-08-19T17:23:21;8.02;;;6.80;;
18893;SDS011;9579;49.488;8.226;2022-08-19T17:26:11;7.28;;;6.60;;
18893;SDS011;9579;49.488;8.226;2022-08-19T17:28:59;7.00;;;6.47;;
18893;SDS011;9579;49.488;8.226;2022-08-19T17:31:47;6.53;;;6.03;;
18893;SDS011;9579;49.488;8.226;2022-08-19T17:34:34;6.78;;;6.30;;
18893;SDS011;9579;49.488;8.226;2022-08-19T17:37:21;7.07;;;6.57;;
18893;SDS011;9579;49.488;8.226;2022-08-19T17:40:09;7.00;;;6.50;;
18893;SDS011;9579;49.488;8.226;2022-08-19T17:42:59;6.78;;;6.28;;
18893;SDS011;9579;49.488;8.226;2022-08-19T17:45:48;7.25;;;6.70;;
18893;SDS011;9579;49.488;8.226;2022-08-19T17:48:36;7.50;;;6.90;;
18893;SDS011;9579;49.488;8.226;2022-08-19T17:51:24;6.78;;;6.30;;
18893;SDS011;9579;49.488;8.226;2022-08-19T17:54:26;7.47;;;6.93;;
18893;SDS011;9579;49.488;8.226;2022-08-19T17:57:13;7.18;;;6.68;;
18893;SDS011;9579;49.488;8.226;2022-08-19T18:00:02;7.20;;;6.60;;
18893;SDS011;9579;49.488;8.226;2022-08-19T18:02:51;7.38;;;6.85;;
18893;SDS011;9579;49.488;8.226;2022-08-19T18:05:41;7.20;;;6.65;;
18893;SDS011;9579;49.488;8.226;2022-08-19T18:08:28;7.00;;;6.50;;
18893;SDS011;9579;49.488;8.226;2022-08-19T18:11:15;9.02;;;8.25;;
18893;SDS011;9579;49.488;8.226;2022-08-19T18:14:03;8.30;;;7.63;;
18893;SDS011;9579;49.488;8.226;2022-08-19T18:16:51;8.77;;;8.07;;
18893;SDS011;9579;49.488;8.226;2022-08-19T18:19:41;8.18;;;7.57;;
18893;SDS011;9579;49.488;8.226;2022-08-19T18:22:29;8.27;;;7.57;;
18893;SDS011;9579;49.488;8.226;2022-08-19T18:25:25;7.65;;;7.07;;
18893;SDS011;9579;49.488;8.226;2022-08-19T18:28:13;7.35;;;6.80;;
18893;SDS011;9579;49.488;8.226;2022-08-19T18:31:01;7.57;;;7.07;;
18893;SDS011;9579;49.488;8.226;2022-08-19T18:33:50;7.22;;;6.63;;
18893;SDS011;9579;49.488;8.226;2022-08-19T18:36:38;7.88;;;7.18;;
18893;SDS011;9579;49.488;8.226;2022-08-19T18:39:25;7.97;;;7.30;;
18893;SDS011;9579;49.488;8.226;2022-08-19T18:42:29;8.20;;;7.40;;
18893;SDS011;9579;49.488;8.226;2022-08-19T18:45:34;8.25;;;7.60;;
18893;SDS011;9579;49.488;8.226;2022-08-19T18:48:38;8.00;;;7.30;;
18893;SDS011;9579;49.488;8.226;2022-08-19T18:51:45;8.32;;;7.68;;
18893;SDS011;9579;49.488;8.226;2022-08-19T18:54:32;8.48;;;7.47;;
18893;SDS011;9579;49.488;8.226;2022-08-19T18:57:20;7.40;;;6.90;;
18893;SDS011;9579;49.488;8.226;2022-08-19T19:00:09;7.47;;;6.90;;
18893;SDS011;9579;49.488;8.226;2022-08-19T19:02:57;7.70;;;7.20;;
18893;SDS011;9579;49.488;8.226;2022-08-19T19:05:50;7.18;;;6.68;;
18893;SDS011;9579;49.488;8.226;2022-08-19T19:08:40;8.00;;;7.25;;
18893;SDS011;9579;49.488;8.226;2022-08-19T19:11:29;7.35;;;6.65;;
18893;SDS011;9579;49.488;8.226;2022-08-19T19:14:19;7.07;;;6.53;;
18893;SDS011;9579;49.488;8.226;2022-08-19T19:17:10;7.00;;;6.50;;
18893;SDS011;9579;49.488;8.226;2022-08-19T19:20:00;7.38;;;6.68;;
18893;SDS011;9579;49.488;8.226;2022-08-19T19:22:47;6.97;;;6.38;;
18893;SDS011;9579;49.488;8.226;2022-08-19T19:25:36;7.15;;;6.65;;
18893;SDS011;9579;49.488;8.226;2022-08-19T19:28:24;6.93;;;6.43;;
18893;SDS011;9579;49.488;8.226;2022-08-19T19:31:14;6.65;;;6.15;;
18893;SDS011;9579;49.488;8.226;2022-08-19T19:34:05;7.10;;;6.45;;
18893;SDS011;9579;49.488;8.226;2022-08-19T19:36:52;6.70;;;6.10;;
18893;SDS011;9579;49.488;8.226;2022-08-19T19:39:42;6.68;;;6.07;;
18893;SDS011;9579;49.488;8.226;2022-08-19T19:42:32;6.80;;;6.20;;
18893;SDS011;9579;49.488;8.226;2022-08-19T19:45:19;7.00;;;6.35;;
18893;SDS011;9579;49.488;8.226;2022-08-19T19:48:06;6.82;;;6.32;;
18893;SDS011;9579;49.488;8.226;2022-08-19T19:50:59;6.50;;;5.90;;
18893;SDS011;9579;49.488;8.226;2022-08-19T19:53:46;6.28;;;5.80;;
18893;SDS011;9579;49.488;8.226;2022-08-19T19:56:36;6.88;;;6.32;;
18893;SDS011;9579;49.488;8.226;2022-08-19T19:59:31;7.07;;;6.47;;
18893;SDS011;9579;49.488;8.226;2022-08-19T20:02:18;6.72;;;6.22;;
18893;SDS011;9579;49.488;8.226;2022-08-19T20:05:06;7.30;;;6.60;;
18893;SDS011;9579;49.488;8.226;2022-08-19T20:07:54;7.25;;;6.60;;
18893;SDS011;9579;49.488;8.226;2022-08-19T20:10:59;7.10;;;6.60;;
18893;SDS011;9579;49.488;8.226;2022-08-19T20:13:48;7.07;;;6.57;;
18893;SDS011;9579;49.488;8.226;2022-08-19T20:16:37;6.80;;;6.30;;
18893;SDS011;9579;49.488;8.226;2022-08-19T20:19:28;6.95;;;6.45;;
18893;SDS011;9579;49.488;8.226;2022-08-19T20:22:26;6.60;;;6.05;;
18893;SDS011;9579;49.488;8.226;2022-08-19T20:25:13;6.95;;;6.45;;
18893;SDS011;9579;49.488;8.226;2022-08-19T20:28:02;6.85;;;6.25;;
18893;SDS011;9579;49.488;8.226;2022-08-19T20:30:50;7.43;;;6.45;;
18893;SDS011;9579;49.488;8.226;2022-08-19T20:33:38;7.03;;;6.20;;
18893;SDS011;9579;49.488;8.226;2022-08-19T20:36:25;6.03;;;5.63;;
18893;SDS011;9579;49.488;8.226;2022-08-19T20:39:13;6.57;;;5.93;;
18893;SDS011;9579;49.488;8.226;2022-08-19T20:42:00;6.13;;;5.63;;
18893;SDS011;9579;49.488;8.226;2022-08-19T20:44:47;5.85;;;5.30;;
18893;SDS011;9579;49.488;8.226;2022-08-19T20:47:34;6.10;;;5.60;;
18893;SDS011;9579;49.488;8.226;2022-08-19T20:50:26;6.13;;;5.63;;
18893;SDS011;9579;49.488;8.226;2022-08-19T20:53:15;5.72;;;5.32;;
18893;SDS011;9579;49.488;8.226;2022-08-19T20:56:04;6.05;;;5.55;;
18893;SDS011;9579;49.488;8.226;2022-08-19T20:58:52;6.45;;;5.85;;
18893;SDS011;9579;49.488;8.226;2022-08-19T21:01:39;5.78;;;5.38;;
18893;SDS011;9579;49.488;8.226;2022-08-19T21:04:29;5.30;;;4.90;;
18893;SDS011;9579;49.488;8.226;2022-08-19T21:07:19;5.80;;;5.40;;
18893;SDS011;9579;49.488;8.226;2022-08-19T21:10:08;5.45;;;5.05;;
18893;SDS011;9579;49.488;8.226;2022-08-19T21:12:56;6.13;;;5.43;;
18893;SDS011;9579;49.488;8.226;2022-08-19T21:15:44;5.25;;;4.85;;
18893;SDS011;9579;49.488;8.226;2022-08-19T21:18:36;5.53;;;5.10;;
18893;SDS011;9579;49.488;8.226;2022-08-19T21:21:23;5.78;;;5.28;;
18893;SDS011;9579;49.488;8.226;2022-08-19T21:24:14;6.47;;;5.97;;
18893;SDS011;9579;49.488;8.226;2022-08-19T21:27:02;6.07;;;5.57;;
18893;SDS011;9579;49.488;8.226;2022-08-19T21:29:49;5.50;;;5.10;;
18893;SDS011;9579;49.488;8.226;2022-08-19T21:32:39;6.25;;;5.75;;
18893;SDS011;9579;49.488;8.226;2022-08-19T21:35:26;6.13;;;5.63;;
18893;SDS011;9579;49.488;8.226;2022-08-19T21:38:14;6.18;;;5.65;;
18893;SDS011;9579;49.488;8.226;2022-08-19T21:41:03;6.45;;;5.85;;
18893;SDS011;9579;49.488;8.226;2022-08-19T21:43:50;6.32;;;5.90;;
18893;SDS011;9579;49.488;8.226;2022-08-19T21:46:38;6.35;;;5.85;;
18893;SDS011;9579;49.488;8.226;2022-08-19T21:49:25;6.60;;;6.10;;
18893;SDS011;9579;49.488;8.226;2022-08-19T21:52:12;5.90;;;5.47;;
18893;SDS011;9579;49.488;8.226;2022-08-19T21:54:59;6.75;;;6.15;;
18893;SDS011;9579;49.488;8.226;2022-08-19T21:57:47;5.57;;;5.15;;
18893;SDS011;9579;49.488;8.226;2022-08-19T22:00:34;5.70;;;5.28;;
18893;SDS011;9579;49.488;8.226;2022-08-19T22:03:22;5.28;;;4.78;;
18893;SDS011;9579;49.488;8.226;2022-08-19T22:06:10;4.88;;;4.57;;
18893;SDS011;9579;49.488;8.226;2022-08-19T22:08:57;4.80;;;4.40;;
18893;SDS011;9579;49.488;8.226;2022-08-19T22:11:44;5.20;;;4.70;;